This is the latest recevied weather packets stored in our database for station/object S50APT-10. If no packets are shown the sender has not sent any weather packets the latest 10 day(s).
| Time | Temp. | Humidity | Pressure | Rain* | Wind** | Luminosity | Snow |
|---|---|---|---|---|---|---|---|
| 1777376411 | 23.33° C | 26% | 1021.2 hPa | - | - | - | - |
| 1777375510 | 21.67° C | 29% | 1021.3 hPa | - | - | - | - |
| 1777374609 | 25° C | 26% | 1021.4 hPa | - | - | - | - |
| 1777373708 | 22.78° C | 27% | 1021.5 hPa | - | - | - | - |
| 1777371907 | 26.11° C | 25% | 1021.8 hPa | - | - | - | - |
| 1777371006 | 20.56° C | 29% | 1021.9 hPa | - | - | - | - |
| 1777370252 | 21.67° C | 28% | 1021.9 hPa | - | - | - | - |
| 1777369206 | 22.78° C | 30% | 1021.9 hPa | - | - | - | - |
| 1777368306 | 23.33° C | 30% | 1022.1 hPa | - | - | - | - |
| 1777366504 | 21.11° C | 31% | 1022 hPa | - | - | - | - |
| 1777365604 | 24.44° C | 28% | 1021.9 hPa | - | - | - | - |
| 1777364703 | 21.11° C | 31% | 1021.9 hPa | - | - | - | - |
| 1777363803 | 27.22° C | 25% | 1021.9 hPa | - | - | - | - |
| 1777362903 | 22.22° C | 30% | 1021.9 hPa | - | - | - | - |
| 1777362003 | 24.44° C | 30% | 1022 hPa | - | - | - | - |
| 1777361102 | 23.33° C | 29% | 1022.2 hPa | - | - | - | - |
| 1777360201 | 21.67° C | 33% | 1022.1 hPa | - | - | - | - |
| 1777359300 | 17.78° C | 39% | 1022 hPa | - | - | - | - |
| 1777357510 | 17.22° C | 39% | 1021.8 hPa | - | - | - | - |
| 1777357499 | 17.22° C | 39% | 1021.8 hPa | - | - | - | - |
| 1777356599 | 16.11° C | 42% | 1021.8 hPa | - | - | - | - |
| 1777355698 | 15° C | 45% | 1021.8 hPa | - | - | - | - |
| 1777354798 | 13.89° C | 46% | 1021.7 hPa | - | - | - | - |
| 1777353909 | 13.33° C | 47% | 1021.6 hPa | - | - | - | - |
| 1777353897 | 13.33° C | 47% | 1021.6 hPa | - | - | - | - |
* Rain since midnight (hover to see other rain measurements)
** Current wind speed in m/s (hover to see current wind gust speed)